createdAt,value
2023-02-07T00:01:17.404Z,0.21
2023-02-07T00:03:44.865Z,0.18
2023-02-07T00:06:17.070Z,0.13
2023-02-07T00:08:45.283Z,0.08
2023-02-07T00:11:20.356Z,0.03
2023-02-07T00:13:50.344Z,0.04
2023-02-07T00:16:17.270Z,0.06
2023-02-07T00:18:45.327Z,0.09
2023-02-07T00:21:15.445Z,0.06
2023-02-07T00:23:43.598Z,0.08
2023-02-07T00:26:11.383Z,0.00
2023-02-07T00:28:38.828Z,-0.02
2023-02-07T00:31:14.938Z,0.01
2023-02-07T00:33:43.686Z,-0.06
2023-02-07T00:36:12.301Z,-0.08
2023-02-07T00:38:39.752Z,-0.26
2023-02-07T00:41:07.432Z,-0.33
2023-02-07T00:43:34.818Z,-0.12
2023-02-07T00:46:04.061Z,-0.18
2023-02-07T00:48:33.471Z,-0.22
2023-02-07T00:51:00.730Z,-0.30
2023-02-07T00:53:28.954Z,-0.14
2023-02-07T00:55:56.148Z,-0.15
2023-02-07T00:58:23.173Z,-0.16
2023-02-07T01:00:50.794Z,-0.12
2023-02-07T01:03:18.282Z,-0.20
2023-02-07T01:05:44.979Z,-0.22
2023-02-07T01:08:11.941Z,-0.22
2023-02-07T01:10:43.705Z,-0.35
2023-02-07T01:13:12.007Z,-0.21
2023-02-07T01:15:40.736Z,-0.32
2023-02-07T01:18:09.095Z,-0.28
2023-02-07T01:20:38.587Z,-0.21
2023-02-07T01:23:06.160Z,-0.16
2023-02-07T01:25:32.838Z,-0.24
2023-02-07T01:27:59.617Z,-0.16
2023-02-07T01:30:27.385Z,-0.14
2023-02-07T01:32:54.031Z,-0.19
2023-02-07T01:35:21.214Z,-0.35
2023-02-07T01:37:48.095Z,-0.18
2023-02-07T01:40:15.199Z,-0.36
2023-02-07T01:42:42.599Z,-0.24
2023-02-07T01:45:22.628Z,-0.23
2023-02-07T01:47:53.087Z,-0.21
2023-02-07T01:50:20.570Z,-0.26
2023-02-07T01:52:48.992Z,-0.29
2023-02-07T01:55:22.727Z,-0.18
2023-02-07T01:57:51.098Z,-0.11
2023-02-07T02:00:18.601Z,-0.11
2023-02-07T02:02:47.253Z,-0.05
2023-02-07T02:05:14.971Z,0.06
2023-02-07T02:07:42.287Z,0.03
2023-02-07T02:10:20.855Z,0.11
2023-02-07T02:13:03.785Z,0.09
2023-02-07T02:15:48.507Z,0.12
2023-02-07T02:18:49.624Z,0.14
2023-02-07T02:21:41.792Z,0.12
2023-02-07T02:24:32.957Z,0.12
2023-02-07T02:27:37.356Z,0.10
2023-02-07T02:30:33.014Z,0.07
2023-02-07T02:33:06.275Z,0.02
2023-02-07T02:36:08.328Z,0.01
2023-02-07T02:39:05.448Z,-0.02
2023-02-07T02:41:47.056Z,-0.03
2023-02-07T02:44:30.918Z,-0.10
2023-02-07T02:46:59.385Z,-0.08
2023-02-07T02:49:26.815Z,-0.25
2023-02-07T02:51:54.565Z,-0.11
2023-02-07T02:54:33.444Z,-0.16
2023-02-07T02:57:35.722Z,-0.22
2023-02-07T03:00:22.633Z,-0.24
2023-02-07T03:02:59.701Z,-0.26
2023-02-07T03:06:04.541Z,-0.28
2023-02-07T03:08:54.297Z,-0.28
2023-02-07T03:11:24.494Z,-0.29
2023-02-07T03:14:23.907Z,-0.39
2023-02-07T03:17:21.582Z,-0.40
2023-02-07T03:19:52.931Z,-0.38
2023-02-07T03:22:23.202Z,-0.41
2023-02-07T03:24:54.346Z,-0.39
2023-02-07T03:27:23.170Z,-0.38
2023-02-07T03:29:52.589Z,-0.42
2023-02-07T03:32:20.559Z,-0.44
2023-02-07T03:34:59.587Z,-0.49
2023-02-07T03:37:36.697Z,-0.50
2023-02-07T03:40:05.514Z,-0.47
2023-02-07T03:42:46.446Z,-0.49
2023-02-07T03:45:16.989Z,-0.45
2023-02-07T03:47:43.860Z,-0.45
2023-02-07T03:50:11.304Z,-0.48
2023-02-07T03:52:37.912Z,-0.44
2023-02-07T03:55:05.558Z,-0.34
2023-02-07T03:57:32.755Z,-0.34
2023-02-07T03:59:59.833Z,-0.35
2023-02-07T04:02:26.948Z,-0.37
2023-02-07T04:04:53.931Z,-0.35
2023-02-07T04:07:20.583Z,-0.37
2023-02-07T04:09:47.232Z,-0.41
2023-02-07T04:12:13.831Z,-0.36
2023-02-07T04:14:41.641Z,-0.28
2023-02-07T04:17:08.470Z,-0.30
2023-02-07T04:19:36.082Z,-0.32
2023-02-07T04:22:02.725Z,-0.33
2023-02-07T04:24:32.121Z,-0.39
2023-02-07T04:27:00.500Z,-0.54
2023-02-07T04:29:28.258Z,-0.54
2023-02-07T04:31:55.633Z,-0.45
2023-02-07T04:34:23.849Z,-0.46
2023-02-07T04:36:53.694Z,-0.51
2023-02-07T04:39:21.082Z,-0.49
2023-02-07T04:41:48.110Z,-0.51
2023-02-07T04:44:16.332Z,-0.68
2023-02-07T04:46:44.187Z,-0.64
2023-02-07T04:49:12.332Z,-0.88
2023-02-07T04:51:38.969Z,-0.81
2023-02-07T04:54:05.687Z,-0.57
2023-02-07T04:56:32.372Z,-0.90
2023-02-07T04:58:59.467Z,-0.82
2023-02-07T05:01:27.532Z,-0.59
2023-02-07T05:03:55.487Z,-0.55
2023-02-07T05:06:23.091Z,-0.63
2023-02-07T05:08:50.042Z,-0.54
2023-02-07T05:11:18.786Z,-0.53
2023-02-07T05:13:45.600Z,-0.53
2023-02-07T05:16:12.213Z,-0.57
2023-02-07T05:18:39.425Z,-0.63
2023-02-07T05:21:06.307Z,-0.53
2023-02-07T05:23:37.261Z,-0.53
2023-02-07T05:26:05.217Z,-0.60
2023-02-07T05:28:33.190Z,-0.62
2023-02-07T05:30:59.817Z,-0.71
2023-02-07T05:33:27.512Z,-0.68
2023-02-07T05:35:54.063Z,-0.70
2023-02-07T05:38:21.644Z,-0.73
2023-02-07T05:40:49.160Z,-0.77
2023-02-07T05:43:16.275Z,-0.74
2023-02-07T05:45:43.599Z,-0.73
2023-02-07T05:48:10.279Z,-0.67
2023-02-07T05:50:37.496Z,-0.69
2023-02-07T05:53:05.147Z,-0.74
2023-02-07T05:55:31.982Z,-0.81
2023-02-07T05:57:58.765Z,-0.69
2023-02-07T06:00:26.166Z,-0.71
2023-02-07T06:02:53.265Z,-0.69
2023-02-07T06:05:23.887Z,-0.71
2023-02-07T06:07:52.484Z,-0.77
2023-02-07T06:10:22.458Z,-0.72
2023-02-07T06:12:50.641Z,-0.77
2023-02-07T06:15:17.261Z,-0.79
2023-02-07T06:17:45.210Z,-0.76
2023-02-07T06:20:12.188Z,-0.68
2023-02-07T06:22:38.808Z,-0.66
2023-02-07T06:25:11.515Z,-0.75
2023-02-07T06:27:40.150Z,-0.77
2023-02-07T06:30:08.474Z,-0.70
2023-02-07T06:32:37.253Z,-0.73
2023-02-07T06:35:05.742Z,-0.70
2023-02-07T06:37:32.526Z,-0.72
2023-02-07T06:39:59.960Z,-0.85
2023-02-07T06:42:29.125Z,-0.87
2023-02-07T06:44:55.706Z,-0.81
2023-02-07T06:47:22.356Z,-0.77
2023-02-07T06:49:49.521Z,-0.83
2023-02-07T06:52:20.101Z,-0.81
2023-02-07T06:54:46.674Z,-0.87
2023-02-07T06:57:14.229Z,-0.78
2023-02-07T06:59:40.862Z,-0.81
2023-02-07T07:02:11.684Z,-0.89
2023-02-07T07:04:38.897Z,-0.89
2023-02-07T07:07:05.854Z,-0.84
2023-02-07T07:09:34.041Z,-0.90
2023-02-07T07:12:01.526Z,-1.08
2023-02-07T07:14:28.370Z,-1.03
2023-02-07T07:16:56.885Z,-1.01
2023-02-07T07:19:23.676Z,-1.09
2023-02-07T07:21:53.137Z,-1.12
2023-02-07T07:24:20.294Z,-1.27
2023-02-07T07:26:50.029Z,-1.11
2023-02-07T07:29:19.527Z,-1.24
2023-02-07T07:31:47.713Z,-1.11
2023-02-07T07:34:15.580Z,-1.25
2023-02-07T07:36:42.922Z,-1.37
2023-02-07T07:39:10.708Z,-1.15
2023-02-07T07:41:37.436Z,-1.13
2023-02-07T07:44:04.296Z,-1.27
2023-02-07T07:46:31.220Z,-1.23
2023-02-07T07:48:58.677Z,-1.32
2023-02-07T07:51:26.656Z,-1.12
2023-02-07T07:53:53.439Z,-1.42
2023-02-07T07:56:21.201Z,-1.27
2023-02-07T07:58:48.794Z,-1.18
2023-02-07T08:01:15.836Z,-1.15
2023-02-07T08:03:42.638Z,-1.16
2023-02-07T08:06:09.583Z,-1.17
2023-02-07T08:08:36.538Z,-1.17
2023-02-07T08:11:09.145Z,-1.29
2023-02-07T08:13:36.689Z,-1.20
2023-02-07T08:16:05.238Z,-1.11
2023-02-07T08:18:32.935Z,-1.09
2023-02-07T08:21:00.611Z,-1.21
2023-02-07T08:23:27.270Z,-1.10
2023-02-07T08:25:53.818Z,-0.97
2023-02-07T08:28:20.862Z,-0.95
2023-02-07T08:30:49.744Z,-0.94
2023-02-07T08:33:16.931Z,-0.93
2023-02-07T08:35:44.210Z,-0.81
2023-02-07T08:38:10.797Z,-0.76
2023-02-07T08:40:38.020Z,-0.83
2023-02-07T08:43:12.692Z,-0.72
2023-02-07T08:45:40.983Z,-0.67
2023-02-07T08:48:08.417Z,-0.64
2023-02-07T08:50:36.063Z,-0.69
2023-02-07T08:53:04.154Z,-0.67
2023-02-07T08:55:32.244Z,-0.59
2023-02-07T08:57:59.131Z,-0.59
2023-02-07T09:00:25.924Z,-0.55
2023-02-07T09:02:56.254Z,-0.52
2023-02-07T09:05:23.076Z,-0.48
2023-02-07T09:07:49.841Z,-0.45
2023-02-07T09:10:16.659Z,-0.44
2023-02-07T09:12:43.715Z,-0.34
2023-02-07T09:15:10.813Z,-0.34
2023-02-07T09:17:37.621Z,-0.26
2023-02-07T09:20:06.117Z,-0.24
2023-02-07T09:22:54.062Z,-0.23
2023-02-07T09:25:20.911Z,-0.24
2023-02-07T09:27:47.767Z,-0.16
2023-02-07T09:30:14.874Z,-0.24
2023-02-07T09:32:41.613Z,-0.07
2023-02-07T09:35:08.941Z,-0.06
2023-02-07T09:37:48.694Z,0.02
2023-02-07T09:40:20.576Z,0.08
2023-02-07T09:43:09.050Z,0.09
2023-02-07T09:45:40.678Z,0.11
2023-02-07T09:48:18.227Z,0.16
2023-02-07T09:51:07.481Z,0.21
2023-02-07T09:54:15.516Z,0.32
2023-02-07T09:56:42.527Z,0.47
2023-02-07T09:59:28.732Z,0.47
2023-02-07T10:02:06.196Z,0.51
2023-02-07T10:04:38.557Z,0.61
2023-02-07T10:07:10.212Z,0.68
2023-02-07T10:09:41.399Z,0.68
2023-02-07T10:12:42.592Z,0.72
2023-02-07T10:15:14.263Z,0.86
2023-02-07T10:18:07.625Z,0.89
2023-02-07T10:20:46.400Z,0.95
2023-02-07T10:23:20.904Z,1.04
2023-02-07T10:25:54.379Z,1.15
2023-02-07T10:28:45.410Z,1.08
2023-02-07T10:31:20.198Z,1.06
2023-02-07T10:34:04.297Z,1.26
2023-02-07T10:36:34.514Z,1.25
2023-02-07T10:39:10.144Z,1.35
2023-02-07T10:41:40.517Z,1.37
2023-02-07T10:44:17.504Z,1.48
2023-02-07T10:46:47.587Z,1.46
2023-02-07T10:49:25.491Z,1.57
2023-02-07T10:52:17.924Z,1.56
2023-02-07T10:54:58.324Z,1.53
2023-02-07T10:57:26.818Z,1.68
2023-02-07T11:00:00.109Z,1.64
2023-02-07T11:02:49.912Z,1.69
2023-02-07T11:05:17.113Z,1.69
2023-02-07T11:08:23.049Z,1.67
2023-02-07T11:10:52.236Z,1.68
2023-02-07T11:13:22.169Z,1.76
2023-02-07T11:16:08.141Z,1.86
2023-02-07T11:18:44.966Z,1.97
2023-02-07T11:21:45.509Z,2.12
2023-02-07T11:24:12.401Z,2.13
2023-02-07T11:27:15.738Z,2.20
2023-02-07T11:29:54.733Z,2.33
2023-02-07T11:32:24.514Z,2.38
2023-02-07T11:35:06.308Z,2.38
2023-02-07T11:37:47.812Z,2.41
2023-02-07T11:40:23.629Z,2.39
2023-02-07T11:43:18.416Z,2.52
2023-02-07T11:45:48.188Z,2.46
2023-02-07T11:48:36.801Z,2.54
2023-02-07T11:51:06.547Z,2.54
2023-02-07T11:53:58.437Z,2.56
2023-02-07T11:56:26.721Z,2.52
2023-02-07T11:58:54.992Z,2.57
2023-02-07T12:01:30.169Z,2.66
2023-02-07T12:04:01.150Z,2.70
2023-02-07T12:07:09.727Z,2.75
2023-02-07T12:09:57.333Z,2.84
2023-02-07T12:12:50.686Z,2.82
2023-02-07T12:15:51.405Z,2.85
2023-02-07T12:18:20.960Z,2.86
2023-02-07T12:20:59.433Z,2.83
2023-02-07T12:23:45.533Z,2.85
2023-02-07T12:26:15.783Z,2.93
2023-02-07T12:28:53.291Z,3.01
2023-02-07T12:31:34.933Z,2.96
2023-02-07T12:34:14.879Z,2.99
2023-02-07T12:36:48.592Z,3.04
2023-02-07T12:39:40.935Z,3.04
2023-02-07T12:42:32.003Z,3.10
2023-02-07T12:45:01.672Z,3.23
2023-02-07T12:47:44.642Z,3.09
2023-02-07T12:50:36.000Z,3.17
2023-02-07T12:53:27.468Z,3.11
2023-02-07T12:56:08.854Z,3.13
2023-02-07T12:58:55.379Z,3.02
2023-02-07T13:01:29.417Z,3.04
2023-02-07T13:04:36.082Z,3.13
2023-02-07T13:07:35.331Z,3.11
2023-02-07T13:10:43.783Z,3.27
2023-02-07T13:13:23.774Z,3.19
2023-02-07T13:16:02.580Z,3.09
2023-02-07T13:18:55.268Z,3.32
2023-02-07T13:21:25.864Z,3.35
2023-02-07T13:23:57.885Z,3.26
2023-02-07T13:26:27.331Z,3.26
2023-02-07T13:28:56.477Z,3.26
2023-02-07T13:31:36.007Z,3.15
2023-02-07T13:34:03.515Z,3.09
2023-02-07T13:36:49.596Z,3.04
2023-02-07T13:39:30.079Z,3.00
2023-02-07T13:42:10.164Z,3.12
2023-02-07T13:44:52.114Z,3.14
2023-02-07T13:47:40.481Z,3.17
2023-02-07T13:50:40.252Z,3.27
2023-02-07T13:53:25.541Z,3.24
2023-02-07T13:55:52.566Z,3.27
2023-02-07T13:58:53.967Z,3.37
2023-02-07T14:01:27.062Z,3.42
2023-02-07T14:04:00.465Z,3.47
2023-02-07T14:06:33.625Z,3.42
2023-02-07T14:09:13.639Z,3.46
2023-02-07T14:12:19.112Z,3.35
2023-02-07T14:15:00.389Z,3.35
2023-02-07T14:17:28.613Z,3.38
2023-02-07T14:20:01.233Z,3.38
2023-02-07T14:22:54.143Z,3.33
2023-02-07T14:25:32.747Z,3.35
2023-02-07T14:28:05.380Z,3.26
2023-02-07T14:30:57.104Z,3.26
2023-02-07T14:33:35.999Z,3.31
2023-02-07T14:36:14.898Z,3.35
2023-02-07T14:38:43.138Z,3.29
2023-02-07T14:41:13.752Z,3.23
2023-02-07T14:44:10.480Z,3.18
2023-02-07T14:46:43.408Z,3.16
2023-02-07T14:49:37.088Z,3.25
2023-02-07T14:52:08.523Z,3.15
2023-02-07T14:54:43.062Z,3.31
2023-02-07T14:57:25.715Z,3.39
2023-02-07T15:00:42.893Z,3.48
2023-02-07T15:03:34.879Z,3.29
2023-02-07T15:06:16.225Z,3.24
2023-02-07T15:09:01.824Z,3.15
2023-02-07T15:11:30.464Z,3.24
2023-02-07T15:14:02.951Z,3.23
2023-02-07T15:16:40.591Z,3.14
2023-02-07T15:19:46.699Z,3.05
2023-02-07T15:22:25.951Z,3.07
2023-02-07T15:24:56.869Z,3.08
2023-02-07T15:27:26.527Z,3.08
2023-02-07T15:29:59.188Z,3.04
2023-02-07T15:32:31.433Z,3.02
2023-02-07T15:34:59.532Z,3.04
2023-02-07T15:37:27.715Z,2.99
2023-02-07T15:39:58.552Z,2.90
2023-02-07T15:42:25.126Z,3.03
2023-02-07T15:44:57.006Z,3.00
2023-02-07T15:47:29.595Z,2.99
2023-02-07T15:50:14.544Z,2.98
2023-02-07T15:52:44.847Z,3.02
2023-02-07T15:55:35.709Z,2.96
2023-02-07T15:58:05.299Z,3.07
2023-02-07T16:00:38.707Z,3.02
2023-02-07T16:03:08.559Z,3.03
2023-02-07T16:05:39.015Z,2.93
2023-02-07T16:08:28.521Z,2.83
2023-02-07T16:10:55.138Z,2.85
2023-02-07T16:13:24.664Z,2.80
2023-02-07T16:15:56.556Z,2.72
2023-02-07T16:18:40.523Z,2.64
2023-02-07T16:21:12.757Z,2.54
2023-02-07T16:23:41.504Z,2.53
2023-02-07T16:26:08.674Z,2.50
2023-02-07T16:28:35.188Z,2.46
2023-02-07T16:31:02.357Z,2.46
2023-02-07T16:33:29.271Z,2.43
2023-02-07T16:35:55.857Z,2.43
2023-02-07T16:38:22.374Z,2.27
2023-02-07T16:40:49.775Z,2.16
2023-02-07T16:43:30.412Z,2.06
2023-02-07T16:45:57.031Z,2.02
2023-02-07T16:48:23.923Z,1.97
2023-02-07T16:50:51.171Z,1.88
2023-02-07T16:53:17.889Z,1.78
2023-02-07T16:55:44.834Z,1.79
2023-02-07T16:58:24.545Z,1.73
2023-02-07T17:00:52.793Z,1.66
2023-02-07T17:03:20.763Z,1.58
2023-02-07T17:05:48.303Z,1.40
2023-02-07T17:08:18.090Z,1.41
2023-02-07T17:10:51.876Z,1.32
2023-02-07T17:13:19.734Z,1.30
2023-02-07T17:15:46.760Z,1.32
2023-02-07T17:18:13.928Z,1.26
2023-02-07T17:20:41.835Z,1.18
2023-02-07T17:23:08.670Z,1.18
2023-02-07T17:25:35.211Z,1.14
2023-02-07T17:28:02.243Z,1.09
2023-02-07T17:30:35.145Z,1.02
2023-02-07T17:33:01.905Z,0.98
2023-02-07T17:35:28.604Z,0.69
2023-02-07T17:37:55.558Z,0.75
2023-02-07T17:40:38.083Z,0.81
2023-02-07T17:43:05.974Z,0.70
2023-02-07T17:45:35.583Z,0.65
2023-02-07T17:48:03.261Z,0.61
2023-02-07T17:50:35.792Z,0.60
2023-02-07T17:53:03.505Z,0.57
2023-02-07T17:55:32.283Z,0.56
2023-02-07T17:58:00.843Z,0.50
2023-02-07T18:00:47.258Z,0.41
2023-02-07T18:03:13.896Z,0.39
2023-02-07T18:05:42.498Z,0.39
2023-02-07T18:08:15.610Z,0.32
2023-02-07T18:10:44.272Z,0.35
2023-02-07T18:13:11.640Z,0.27
2023-02-07T18:15:39.332Z,0.22
2023-02-07T18:18:06.206Z,0.03
2023-02-07T18:20:34.609Z,0.23
2023-02-07T18:23:02.014Z,0.19
2023-02-07T18:25:30.062Z,0.05
2023-02-07T18:27:57.564Z,0.12
2023-02-07T18:30:26.640Z,0.05
2023-02-07T18:32:53.986Z,0.07
2023-02-07T18:35:21.410Z,-0.18
2023-02-07T18:37:48.436Z,-0.09
2023-02-07T18:40:15.926Z,-0.26
2023-02-07T18:42:43.267Z,-0.08
2023-02-07T18:45:10.921Z,-0.21
2023-02-07T18:47:37.669Z,-0.04
2023-02-07T18:50:04.983Z,-0.11
2023-02-07T18:52:31.948Z,-0.12
2023-02-07T18:54:58.991Z,-0.10
2023-02-07T18:57:25.752Z,-0.19
2023-02-07T18:59:52.524Z,-0.15
2023-02-07T19:02:19.333Z,-0.23
2023-02-07T19:04:48.408Z,-0.19
2023-02-07T19:07:15.776Z,-0.26
2023-02-07T19:09:43.095Z,-0.21
2023-02-07T19:12:10.915Z,-0.23
2023-02-07T19:14:37.929Z,-0.22
2023-02-07T19:17:04.701Z,-0.22
2023-02-07T19:19:32.204Z,-0.19
2023-02-07T19:21:59.147Z,-0.25
2023-02-07T19:24:26.643Z,-0.12
2023-02-07T19:26:56.660Z,-0.16
2023-02-07T19:29:29.648Z,-0.22
2023-02-07T19:31:58.404Z,-0.27
2023-02-07T19:34:25.367Z,-0.19
2023-02-07T19:36:52.839Z,-0.27
2023-02-07T19:39:20.887Z,-0.40
2023-02-07T19:41:47.830Z,-0.38
2023-02-07T19:44:14.782Z,-0.43
2023-02-07T19:46:44.612Z,-0.44
2023-02-07T19:49:12.844Z,-0.55
2023-02-07T19:51:39.799Z,-0.52
2023-02-07T19:54:09.617Z,-0.61
2023-02-07T19:56:37.721Z,-0.57
2023-02-07T19:59:06.778Z,-0.55
2023-02-07T20:01:35.589Z,-0.58
2023-02-07T20:04:04.274Z,-0.61
2023-02-07T20:06:34.050Z,-0.63
2023-02-07T20:09:08.281Z,-0.71
2023-02-07T20:11:35.535Z,-0.71
2023-02-07T20:14:03.674Z,-0.72
2023-02-07T20:16:33.850Z,-0.76
2023-02-07T20:19:02.337Z,-0.81
2023-02-07T20:21:30.875Z,-0.78
2023-02-07T20:23:59.891Z,-0.79
2023-02-07T20:26:32.477Z,-0.79
2023-02-07T20:29:02.548Z,-0.97
2023-02-07T20:31:32.455Z,-1.09
2023-02-07T20:33:59.784Z,-0.86
2023-02-07T20:36:28.752Z,-0.94
2023-02-07T20:38:59.366Z,-1.09
2023-02-07T20:41:32.787Z,-1.04
2023-02-07T20:44:05.522Z,-1.03
2023-02-07T20:46:34.661Z,-1.11
2023-02-07T20:49:05.759Z,-1.05
2023-02-07T20:51:33.047Z,-1.08
2023-02-07T20:54:02.173Z,-1.12
2023-02-07T20:56:31.515Z,-1.15
2023-02-07T20:58:59.623Z,-1.20
2023-02-07T21:01:29.841Z,-1.14
2023-02-07T21:03:59.826Z,-1.26
2023-02-07T21:06:28.713Z,-1.12
2023-02-07T21:09:00.714Z,-1.31
2023-02-07T21:11:29.763Z,-1.22
2023-02-07T21:13:56.964Z,-1.28
2023-02-07T21:16:23.806Z,-1.33
2023-02-07T21:18:51.751Z,-1.29
2023-02-07T21:21:19.747Z,-1.33
2023-02-07T21:23:48.045Z,-1.47
2023-02-07T21:26:15.900Z,-1.37
2023-02-07T21:28:44.109Z,-1.44
2023-02-07T21:31:14.726Z,-1.43
2023-02-07T21:33:41.631Z,-1.47
2023-02-07T21:36:10.689Z,-1.46
2023-02-07T21:38:39.506Z,-1.43
2023-02-07T21:41:09.299Z,-1.45
2023-02-07T21:43:36.873Z,-1.47
2023-02-07T21:46:18.443Z,-1.45
2023-02-07T21:48:46.644Z,-1.56
2023-02-07T21:51:16.183Z,-1.51
2023-02-07T21:53:43.796Z,-1.55
2023-02-07T21:56:13.085Z,-1.53
2023-02-07T21:58:40.803Z,-1.69
2023-02-07T22:01:12.930Z,-1.56
2023-02-07T22:03:42.347Z,-1.56
2023-02-07T22:06:09.940Z,-1.56
2023-02-07T22:08:37.693Z,-1.67
2023-02-07T22:11:12.357Z,-1.62
2023-02-07T22:13:42.201Z,-1.71
2023-02-07T22:16:13.572Z,-1.68
2023-02-07T22:18:41.026Z,-1.68
2023-02-07T22:21:22.327Z,-1.72
2023-02-07T22:23:49.514Z,-1.83
2023-02-07T22:26:18.144Z,-1.85
2023-02-07T22:28:47.754Z,-1.72
2023-02-07T22:31:17.791Z,-1.85
2023-02-07T22:33:45.168Z,-1.78
2023-02-07T22:36:16.098Z,-1.74
2023-02-07T22:38:43.203Z,-1.86
2023-02-07T22:41:10.170Z,-1.92
2023-02-07T22:43:38.478Z,-1.82
2023-02-07T22:46:06.993Z,-1.75
2023-02-07T22:48:33.859Z,-1.75
2023-02-07T22:51:26.195Z,-2.01
2023-02-07T22:53:56.563Z,-1.77
2023-02-07T22:56:24.109Z,-1.80
2023-02-07T22:58:54.289Z,-1.72
2023-02-07T23:01:30.190Z,-1.70
2023-02-07T23:03:58.648Z,-1.67
2023-02-07T23:06:26.095Z,-1.53
2023-02-07T23:08:54.051Z,-1.58
2023-02-07T23:11:23.558Z,-1.58
2023-02-07T23:13:51.841Z,-1.51
2023-02-07T23:16:29.272Z,-1.55
2023-02-07T23:18:57.920Z,-1.51
2023-02-07T23:21:26.935Z,-1.55
2023-02-07T23:23:54.264Z,-1.55
2023-02-07T23:26:23.145Z,-1.55
2023-02-07T23:28:51.221Z,-1.45
2023-02-07T23:31:20.919Z,-1.49
2023-02-07T23:33:48.084Z,-1.56
2023-02-07T23:36:17.422Z,-1.55
2023-02-07T23:38:44.776Z,-1.60
2023-02-07T23:41:11.358Z,-1.65
2023-02-07T23:43:38.635Z,-1.71
2023-02-07T23:46:07.070Z,-1.61
2023-02-07T23:48:38.120Z,-1.73
2023-02-07T23:51:06.208Z,-1.68
2023-02-07T23:53:33.302Z,-1.78
2023-02-07T23:56:00.368Z,-1.73
2023-02-07T23:58:29.060Z,-1.75
